Terminal Aerodrome Forecast
Issued by NWS Memphis, TN

Home | Current Version | Previous Version | Text Only | Print | Product List | Glossary On
Versions: 1 2 3 4 5 6 7 8 9 10 11 12 13 14 15 16 17 18 19 20 21 22 23 24 25 26 27
000
FTUS44 KMEG 241700
TAFMEM
TAF
KMEM 241734Z 2418/2518 19015G20KT P6SM FEW050 BKN250
     FM242100 20016G25KT P6SM VCTS BKN040CB OVC150
      TEMPO 2423/2503 3SM TSRA OVC015CB
     FM250300 24015G23KT P6SM OVC015
     FM251100 28010KT P6SM SCT035
     FM251300 32010KT P6SM SKC=

USA.gov is the U.S. government's official web portal to all federal, state and local government web resources and services.